createdAt,value
2018-10-18T00:00:32.631Z,33.80
2018-10-18T00:03:02.009Z,39.90
2018-10-18T00:05:31.851Z,38.80
2018-10-18T00:08:01.350Z,36.77
2018-10-18T00:10:30.791Z,38.63
2018-10-18T00:13:00.159Z,41.63
2018-10-18T00:15:29.579Z,36.27
2018-10-18T00:17:59.013Z,40.50
2018-10-18T00:20:28.408Z,48.03
2018-10-18T00:22:57.800Z,46.47
2018-10-18T00:25:27.210Z,50.40
2018-10-18T00:27:56.689Z,48.60
2018-10-18T00:30:27.179Z,52.13
2018-10-18T00:32:57.661Z,49.43
2018-10-18T00:35:27.060Z,47.13
2018-10-18T00:37:56.430Z,50.43
2018-10-18T00:40:25.745Z,49.60
2018-10-18T00:42:55.178Z,52.40
2018-10-18T00:45:26.576Z,53.17
2018-10-18T00:47:56.099Z,53.27
2018-10-18T00:50:25.431Z,54.00
2018-10-18T00:52:54.845Z,54.77
2018-10-18T00:55:24.146Z,54.67
2018-10-18T00:57:53.595Z,52.00
2018-10-18T01:00:23.012Z,50.70
2018-10-18T01:02:56.408Z,51.40
2018-10-18T01:05:25.761Z,50.57
2018-10-18T01:07:55.174Z,49.27
2018-10-18T01:10:24.539Z,54.90
2018-10-18T01:12:53.994Z,47.80
2018-10-18T01:15:23.369Z,48.60
2018-10-18T01:17:52.925Z,45.47
2018-10-18T01:20:22.364Z,50.40
2018-10-18T01:22:51.797Z,47.73
2018-10-18T01:25:21.116Z,49.40
2018-10-18T01:27:50.771Z,46.10
2018-10-18T01:30:20.267Z,46.33
2018-10-18T01:32:49.789Z,45.83
2018-10-18T01:35:19.131Z,43.53
2018-10-18T01:37:48.425Z,43.13
2018-10-18T01:40:17.790Z,45.13
2018-10-18T01:42:47.187Z,43.70
2018-10-18T01:45:16.763Z,45.70
2018-10-18T01:47:46.155Z,44.67
2018-10-18T01:50:15.674Z,42.27
2018-10-18T01:52:44.911Z,42.30
2018-10-18T01:55:14.284Z,42.73
2018-10-18T01:57:43.675Z,42.77
2018-10-18T02:00:13.187Z,42.20
2018-10-18T02:02:42.687Z,38.63
2018-10-18T02:05:12.101Z,39.57
2018-10-18T02:07:41.453Z,40.80
2018-10-18T02:10:10.797Z,38.83
2018-10-18T02:12:40.380Z,35.83
2018-10-18T02:15:10.824Z,41.70
2018-10-18T02:17:40.605Z,43.13
2018-10-18T02:20:10.868Z,46.40
2018-10-18T02:22:40.840Z,48.57
2018-10-18T02:25:10.395Z,40.33
2018-10-18T02:27:39.690Z,42.93
2018-10-18T02:30:09.223Z,46.40
2018-10-18T02:32:39.015Z,46.07
2018-10-18T02:35:08.673Z,43.90
2018-10-18T02:37:38.254Z,41.87
2018-10-18T02:40:07.902Z,49.07
2018-10-18T02:42:37.303Z,44.70
2018-10-18T02:45:06.717Z,46.03
2018-10-18T02:47:36.153Z,48.27
2018-10-18T02:50:25.612Z,48.73
2018-10-18T02:52:55.086Z,45.83
2018-10-18T02:55:24.508Z,48.20
2018-10-18T02:57:53.850Z,47.80
2018-10-18T03:00:23.259Z,46.97
2018-10-18T03:02:52.641Z,43.43
2018-10-18T03:05:22.224Z,48.33
2018-10-18T03:07:51.609Z,42.90
2018-10-18T03:10:20.987Z,45.07
2018-10-18T03:12:50.409Z,42.67
2018-10-18T03:15:19.858Z,41.93
2018-10-18T03:17:49.458Z,37.43
2018-10-18T03:20:19.106Z,38.63
2018-10-18T03:22:48.443Z,46.43
2018-10-18T03:25:18.066Z,49.63
2018-10-18T03:27:47.412Z,46.97
2018-10-18T03:30:16.851Z,45.07
2018-10-18T03:32:48.340Z,44.47
2018-10-18T03:35:17.700Z,45.07
2018-10-18T03:37:47.133Z,48.50
2018-10-18T03:40:16.579Z,43.60
2018-10-18T03:42:45.985Z,40.27
2018-10-18T03:45:15.581Z,44.17
2018-10-18T03:47:44.905Z,45.07
2018-10-18T03:50:14.313Z,41.93
2018-10-18T03:52:43.685Z,48.10
2018-10-18T03:55:13.318Z,38.73
2018-10-18T03:57:42.636Z,39.03
2018-10-18T04:00:12.179Z,40.53
2018-10-18T04:02:41.673Z,47.37
2018-10-18T04:05:12.088Z,40.97
2018-10-18T04:07:41.511Z,42.97
2018-10-18T04:10:10.901Z,37.47
2018-10-18T04:12:40.319Z,40.27
2018-10-18T04:15:09.762Z,44.67
2018-10-18T04:17:39.078Z,44.47
2018-10-18T04:20:11.036Z,49.83
2018-10-18T04:22:40.407Z,42.47
2018-10-18T04:25:14.774Z,44.80
2018-10-18T04:27:44.190Z,38.70
2018-10-18T04:30:13.702Z,43.87
2018-10-18T04:32:42.927Z,39.40
2018-10-18T04:35:12.274Z,41.33
2018-10-18T04:37:41.854Z,35.93
2018-10-18T04:40:11.209Z,37.40
2018-10-18T04:42:40.771Z,35.00
2018-10-18T04:45:10.162Z,30.73
2018-10-18T04:47:39.636Z,34.60
2018-10-18T04:50:09.750Z,30.70
2018-10-18T04:52:39.166Z,32.53
2018-10-18T04:55:08.606Z,35.73
2018-10-18T04:57:38.051Z,31.90
2018-10-18T05:00:08.076Z,34.67
2018-10-18T05:02:37.511Z,32.23
2018-10-18T05:05:23.809Z,38.03
2018-10-18T05:07:53.297Z,30.27
2018-10-18T05:10:26.931Z,37.83
2018-10-18T05:12:56.440Z,35.10
2018-10-18T05:15:25.815Z,28.80
2018-10-18T05:17:55.496Z,29.80
2018-10-18T05:20:25.100Z,34.70
2018-10-18T05:22:54.990Z,31.70
2018-10-18T05:25:24.880Z,39.00
2018-10-18T05:27:54.252Z,30.43
2018-10-18T05:30:24.093Z,30.43
2018-10-18T05:32:53.535Z,30.30
2018-10-18T05:35:23.040Z,32.83
2018-10-18T05:37:52.667Z,32.47
2018-10-18T05:40:21.969Z,31.33
2018-10-18T05:42:51.472Z,28.60
2018-10-18T05:45:20.810Z,33.20
2018-10-18T05:47:50.250Z,27.67
2018-10-18T05:50:19.683Z,31.33
2018-10-18T05:52:49.204Z,27.97
2018-10-18T05:55:18.728Z,31.07
2018-10-18T05:57:50.163Z,28.23
2018-10-18T06:00:20.185Z,27.30
2018-10-18T06:02:49.599Z,29.20
2018-10-18T06:05:19.326Z,29.30
2018-10-18T06:07:48.787Z,33.13
2018-10-18T06:10:35.188Z,33.57
2018-10-18T06:13:04.559Z,35.17
2018-10-18T06:15:33.877Z,31.90
2018-10-18T06:18:03.274Z,29.40
2018-10-18T06:20:32.794Z,31.17
2018-10-18T06:23:04.031Z,28.37
2018-10-18T06:25:34.469Z,30.10
2018-10-18T06:28:03.923Z,33.00
2018-10-18T06:30:33.287Z,35.53
2018-10-18T06:33:02.676Z,33.07
2018-10-18T06:35:34.306Z,33.10
2018-10-18T06:38:04.033Z,34.17
2018-10-18T06:40:33.468Z,36.20
2018-10-18T06:43:06.300Z,31.47
2018-10-18T06:45:35.798Z,44.00
2018-10-18T06:48:05.690Z,36.67
2018-10-18T06:50:35.026Z,44.90
2018-10-18T06:53:04.566Z,42.37
2018-10-18T06:55:34.030Z,38.40
2018-10-18T06:58:03.696Z,42.40
2018-10-18T07:00:33.179Z,37.73
2018-10-18T07:03:02.954Z,39.70
2018-10-18T07:05:32.311Z,36.10
2018-10-18T07:08:01.681Z,32.70
2018-10-18T07:10:31.117Z,31.40
2018-10-18T07:13:00.464Z,29.77
2018-10-18T07:15:29.859Z,30.47
2018-10-18T07:17:59.251Z,32.50
2018-10-18T07:20:28.695Z,35.17
2018-10-18T07:22:58.142Z,28.73
2018-10-18T07:25:27.627Z,32.33
2018-10-18T07:27:56.980Z,31.10
2018-10-18T07:30:26.403Z,29.70
2018-10-18T07:32:55.846Z,33.60
2018-10-18T07:35:25.264Z,34.13
2018-10-18T07:37:54.678Z,30.37
2018-10-18T07:40:24.076Z,28.80
2018-10-18T07:42:53.496Z,27.37
2018-10-18T07:45:22.919Z,26.33
2018-10-18T07:47:52.347Z,31.67
2018-10-18T07:50:21.769Z,32.97
2018-10-18T07:52:51.186Z,34.90
2018-10-18T07:55:20.569Z,28.50
2018-10-18T07:57:50.102Z,27.70
2018-10-18T08:00:19.661Z,36.67
2018-10-18T08:02:49.051Z,48.33
2018-10-18T08:05:18.410Z,51.47
2018-10-18T08:07:47.816Z,50.67
2018-10-18T08:10:18.614Z,43.20
2018-10-18T08:12:48.101Z,55.57
2018-10-18T08:15:18.027Z,38.97
2018-10-18T08:17:47.366Z,36.43
2018-10-18T08:20:16.806Z,35.87
2018-10-18T08:22:46.244Z,34.43
2018-10-18T08:25:16.907Z,32.80
2018-10-18T08:27:46.388Z,30.50
2018-10-18T08:30:15.881Z,29.73
2018-10-18T08:32:45.446Z,33.03
2018-10-18T08:35:14.910Z,27.70
2018-10-18T08:37:44.491Z,30.17
2018-10-18T08:40:13.785Z,28.80
2018-10-18T08:42:43.263Z,33.63
2018-10-18T08:45:12.834Z,29.53
2018-10-18T08:47:42.287Z,35.00
2018-10-18T08:50:12.627Z,30.30
2018-10-18T08:52:41.955Z,29.10
2018-10-18T08:55:13.462Z,32.37
2018-10-18T08:57:43.570Z,30.53
2018-10-18T09:00:13.776Z,28.03
2018-10-18T09:02:43.465Z,28.00
2018-10-18T09:05:12.872Z,27.20
2018-10-18T09:07:42.373Z,26.13
2018-10-18T09:10:12.162Z,26.37
2018-10-18T09:12:41.561Z,24.33
2018-10-18T09:15:11.626Z,21.13
2018-10-18T09:17:40.986Z,19.60
2018-10-18T09:20:10.375Z,20.93
2018-10-18T09:22:39.818Z,24.90
2018-10-18T09:25:10.404Z,25.33
2018-10-18T09:27:40.449Z,27.17
2018-10-18T09:30:12.371Z,31.67
2018-10-18T09:32:44.509Z,27.63
2018-10-18T09:35:13.916Z,23.00
2018-10-18T09:37:43.342Z,21.17
2018-10-18T09:40:12.696Z,24.87
2018-10-18T09:42:42.153Z,24.83
2018-10-18T09:45:12.653Z,27.57
2018-10-18T09:47:42.153Z,33.43
2018-10-18T09:50:12.590Z,37.40
2018-10-18T09:52:41.989Z,37.60
2018-10-18T09:55:13.226Z,40.27
2018-10-18T09:57:42.719Z,36.23
2018-10-18T10:00:17.352Z,35.80
2018-10-18T10:02:50.357Z,30.57
2018-10-18T10:05:20.683Z,21.23
2018-10-18T10:07:50.063Z,26.07
2018-10-18T10:10:19.437Z,21.80
2018-10-18T10:12:48.921Z,22.80
2018-10-18T10:15:18.295Z,25.23
2018-10-18T10:17:47.795Z,21.17
2018-10-18T10:20:17.081Z,21.70
2018-10-18T10:22:46.538Z,19.10
2018-10-18T10:25:16.273Z,17.67
2018-10-18T10:27:45.725Z,19.20
2018-10-18T10:30:15.199Z,13.17
2018-10-18T10:32:44.651Z,13.20
2018-10-18T10:35:14.118Z,9.20
2018-10-18T10:37:43.949Z,7.83
2018-10-18T10:40:13.398Z,6.33
2018-10-18T10:42:43.153Z,6.97
2018-10-18T10:45:13.347Z,7.23
2018-10-18T10:47:42.654Z,7.10
2018-10-18T10:50:12.262Z,10.97
2018-10-18T10:52:41.544Z,11.47
2018-10-18T10:55:11.455Z,11.97
2018-10-18T10:57:40.822Z,12.67
2018-10-18T11:00:10.308Z,13.90
2018-10-18T11:02:39.597Z,14.47
2018-10-18T11:05:09.065Z,13.37
2018-10-18T11:07:38.471Z,14.50
2018-10-18T11:10:07.933Z,17.80
2018-10-18T11:12:37.403Z,14.20
2018-10-18T11:15:07.033Z,15.07
2018-10-18T11:17:36.454Z,15.07
2018-10-18T11:20:06.000Z,14.73
2018-10-18T11:22:35.486Z,16.63
2018-10-18T11:25:05.285Z,16.10
2018-10-18T11:27:34.664Z,17.43
2018-10-18T11:30:04.134Z,18.57
2018-10-18T11:32:33.466Z,17.20
2018-10-18T11:35:03.503Z,18.00
2018-10-18T11:37:32.915Z,19.10
2018-10-18T11:40:02.311Z,19.40
2018-10-18T11:42:31.715Z,18.93
2018-10-18T11:45:01.131Z,20.33
2018-10-18T11:47:30.517Z,17.77
2018-10-18T11:49:59.927Z,14.20
2018-10-18T11:52:29.324Z,15.17
2018-10-18T11:54:58.670Z,14.97
2018-10-18T11:57:28.126Z,14.83
2018-10-18T11:59:57.768Z,14.87
2018-10-18T12:02:27.186Z,12.57
2018-10-18T12:04:56.570Z,12.23
2018-10-18T12:07:25.981Z,12.07
2018-10-18T12:09:55.385Z,11.77
2018-10-18T12:12:25.039Z,10.97
2018-10-18T12:14:54.363Z,11.30
2018-10-18T12:17:23.806Z,11.10
2018-10-18T12:19:53.234Z,11.60
2018-10-18T12:22:22.546Z,11.07
2018-10-18T12:24:53.047Z,10.80
2018-10-18T12:27:22.426Z,11.13
2018-10-18T12:29:51.868Z,10.90
2018-10-18T12:32:21.328Z,12.23
2018-10-18T12:34:50.760Z,11.70
2018-10-18T12:37:20.242Z,11.97
2018-10-18T12:39:49.708Z,11.77
2018-10-18T12:42:19.273Z,12.33
2018-10-18T12:44:48.640Z,11.37
2018-10-18T12:47:18.016Z,8.90
2018-10-18T12:49:48.558Z,6.80
2018-10-18T12:52:17.965Z,5.60
2018-10-18T12:54:47.400Z,4.67
2018-10-18T12:57:16.759Z,4.73
2018-10-18T13:00:01.559Z,4.13
2018-10-18T13:02:31.306Z,4.70
2018-10-18T13:05:00.669Z,6.03
2018-10-18T13:07:30.089Z,6.30
2018-10-18T13:09:59.456Z,6.77
2018-10-18T13:12:28.963Z,8.80
2018-10-18T13:14:58.164Z,10.30
2018-10-18T13:17:27.536Z,12.90
2018-10-18T13:19:56.951Z,13.53
2018-10-18T13:22:26.378Z,16.50
2018-10-18T13:24:59.661Z,15.40
2018-10-18T13:27:29.100Z,18.27
2018-10-18T13:29:58.442Z,16.73
2018-10-18T13:32:27.782Z,17.90
2018-10-18T13:34:57.187Z,17.37
2018-10-18T13:37:33.188Z,13.13
2018-10-18T13:40:02.863Z,15.67
2018-10-18T13:42:32.262Z,15.90
2018-10-18T13:45:01.874Z,13.60
2018-10-18T13:47:31.406Z,15.17
2018-10-18T13:50:00.801Z,13.33
2018-10-18T13:52:32.649Z,13.13
2018-10-18T13:55:02.289Z,11.60
2018-10-18T13:57:32.767Z,15.37
2018-10-18T14:00:30.138Z,14.33
2018-10-18T14:02:59.618Z,13.83
2018-10-18T14:05:29.217Z,10.63
2018-10-18T14:07:58.635Z,11.03
2018-10-18T14:10:27.946Z,12.10
2018-10-18T14:12:57.563Z,13.53
2018-10-18T14:15:26.985Z,17.70
2018-10-18T14:17:56.351Z,17.07
2018-10-18T14:20:25.772Z,14.30
2018-10-18T14:22:55.145Z,14.07
2018-10-18T14:25:26.564Z,14.67
2018-10-18T14:27:55.979Z,13.33
2018-10-18T14:30:25.474Z,12.97
2018-10-18T14:32:54.847Z,13.10
2018-10-18T14:35:24.374Z,9.80
2018-10-18T14:37:53.821Z,10.93
2018-10-18T14:40:23.184Z,10.73
2018-10-18T14:42:52.642Z,10.60
2018-10-18T14:45:22.108Z,12.47
2018-10-18T14:47:51.511Z,9.00
2018-10-18T14:50:21.018Z,10.40
2018-10-18T14:52:50.345Z,13.80
2018-10-18T14:55:19.684Z,10.37
2018-10-18T14:57:49.085Z,11.17
2018-10-18T15:00:18.485Z,12.80
2018-10-18T15:02:47.992Z,9.03
2018-10-18T15:05:17.494Z,10.67
2018-10-18T15:07:46.904Z,10.57
2018-10-18T15:10:16.237Z,11.23
2018-10-18T15:12:45.604Z,11.57
2018-10-18T15:15:15.247Z,11.77
2018-10-18T15:17:44.886Z,14.90
2018-10-18T15:20:14.327Z,12.60
2018-10-18T15:22:44.061Z,13.90
2018-10-18T15:25:14.181Z,13.77
2018-10-18T15:27:43.802Z,14.67
2018-10-18T15:30:13.702Z,13.87
2018-10-18T15:32:43.064Z,11.57
2018-10-18T15:35:12.967Z,11.07
2018-10-18T15:37:42.420Z,11.40
2018-10-18T15:40:11.881Z,10.47
2018-10-18T15:42:41.311Z,12.67
2018-10-18T15:45:11.117Z,13.07
2018-10-18T15:47:46.227Z,12.87
2018-10-18T15:50:15.682Z,15.67
2018-10-18T15:52:45.018Z,11.70
2018-10-18T15:55:14.473Z,10.43
2018-10-18T15:57:43.803Z,10.60
2018-10-18T16:00:13.172Z,8.47
2018-10-18T16:02:42.907Z,9.77
2018-10-18T16:05:12.726Z,11.47
2018-10-18T16:07:42.103Z,9.93
2018-10-18T16:10:11.574Z,14.33
2018-10-18T16:12:40.990Z,9.83
2018-10-18T16:15:11.232Z,16.10
2018-10-18T16:17:40.672Z,14.13
2018-10-18T16:20:10.765Z,11.20
2018-10-18T16:22:40.773Z,11.57
2018-10-18T16:25:11.419Z,12.77
2018-10-18T16:27:41.774Z,8.97
2018-10-18T16:30:14.941Z,12.67
2018-10-18T16:32:44.852Z,13.20
2018-10-18T16:35:14.872Z,7.33
2018-10-18T16:37:50.719Z,8.37
2018-10-18T16:40:20.336Z,9.67
2018-10-18T16:42:53.477Z,9.57
2018-10-18T16:45:22.804Z,11.60
2018-10-18T16:47:52.271Z,8.43
2018-10-18T16:50:22.701Z,14.60
2018-10-18T16:52:52.043Z,11.27
2018-10-18T16:55:21.655Z,11.13
2018-10-18T16:57:51.057Z,11.97
2018-10-18T17:00:20.590Z,13.40
2018-10-18T17:02:49.855Z,15.77
2018-10-18T17:05:19.321Z,10.43
2018-10-18T17:07:48.999Z,12.07
2018-10-18T17:10:18.783Z,10.97
2018-10-18T17:12:48.153Z,8.10
2018-10-18T17:15:17.544Z,14.57
2018-10-18T17:17:46.953Z,11.50
2018-10-18T17:20:16.577Z,12.63
2018-10-18T17:22:46.943Z,10.20
2018-10-18T17:25:16.911Z,12.17
2018-10-18T17:27:46.439Z,14.10
2018-10-18T17:30:17.977Z,10.37
2018-10-18T17:32:47.515Z,11.83
2018-10-18T17:35:16.894Z,13.23
2018-10-18T17:37:46.390Z,14.67
2018-10-18T17:40:15.913Z,12.57
2018-10-18T17:42:46.273Z,12.03
2018-10-18T17:45:15.874Z,13.13
2018-10-18T17:47:49.434Z,12.10
2018-10-18T17:50:19.423Z,13.73
2018-10-18T17:52:49.008Z,14.43
2018-10-18T17:55:18.396Z,14.30
2018-10-18T17:57:47.801Z,18.87
2018-10-18T18:00:17.295Z,13.40
2018-10-18T18:02:46.635Z,16.80
2018-10-18T18:05:16.043Z,15.60
2018-10-18T18:07:45.415Z,12.57
2018-10-18T18:10:16.140Z,16.67
2018-10-18T18:12:45.798Z,16.23
2018-10-18T18:15:15.271Z,13.93
2018-10-18T18:17:44.609Z,12.43
2018-10-18T18:20:14.065Z,14.30
2018-10-18T18:22:43.451Z,15.27
2018-10-18T18:25:13.272Z,14.13
2018-10-18T18:27:42.566Z,17.93
2018-10-18T18:30:14.540Z,12.73
2018-10-18T18:32:44.258Z,15.97
2018-10-18T18:35:13.670Z,12.40
2018-10-18T18:37:45.043Z,11.83
2018-10-18T18:40:14.394Z,17.20
2018-10-18T18:42:43.811Z,12.80
2018-10-18T18:45:18.432Z,13.60
2018-10-18T18:47:47.756Z,14.60
2018-10-18T18:50:17.083Z,12.77
2018-10-18T18:52:46.503Z,13.83
2018-10-18T18:55:17.083Z,12.27
2018-10-18T18:57:51.313Z,16.73
2018-10-18T19:00:20.888Z,12.47
2018-10-18T19:02:52.389Z,13.50
2018-10-18T19:05:21.773Z,13.23
2018-10-18T19:07:51.064Z,10.83
2018-10-18T19:10:20.497Z,12.50
2018-10-18T19:12:49.991Z,12.73
2018-10-18T19:15:19.431Z,13.47
2018-10-18T19:17:50.733Z,11.90
2018-10-18T19:20:20.156Z,17.00
2018-10-18T19:22:49.539Z,11.23
2018-10-18T19:25:18.900Z,10.47
2018-10-18T19:27:48.266Z,10.80
2018-10-18T19:30:17.737Z,13.13
2018-10-18T19:32:47.042Z,12.30
2018-10-18T19:35:16.381Z,14.00
2018-10-18T19:37:47.865Z,16.33
2018-10-18T19:40:20.316Z,13.93
2018-10-18T19:42:49.654Z,12.87
2018-10-18T19:45:20.723Z,13.10
2018-10-18T19:47:50.453Z,12.57
2018-10-18T19:50:20.677Z,13.20
2018-10-18T19:52:54.688Z,12.57
2018-10-18T19:55:24.364Z,13.60
2018-10-18T19:57:53.769Z,11.57
2018-10-18T20:00:23.170Z,10.17
2018-10-18T20:02:52.542Z,11.97
2018-10-18T20:05:26.106Z,14.37
2018-10-18T20:07:55.645Z,10.97
2018-10-18T20:10:25.001Z,12.73
2018-10-18T20:12:54.430Z,9.87
2018-10-18T20:15:23.789Z,13.07
2018-10-18T20:17:53.126Z,11.93
2018-10-18T20:20:23.598Z,13.37
2018-10-18T20:22:52.957Z,10.90
2018-10-18T20:25:22.418Z,12.93
2018-10-18T20:27:51.697Z,13.13
2018-10-18T20:30:21.201Z,11.80
2018-10-18T20:32:50.605Z,12.30
2018-10-18T20:35:20.097Z,13.60
2018-10-18T20:37:49.535Z,14.47
2018-10-18T20:40:19.055Z,9.13
2018-10-18T20:42:48.433Z,13.73
2018-10-18T20:45:22.998Z,16.13
2018-10-18T20:47:52.436Z,13.03
2018-10-18T20:50:21.875Z,10.27
2018-10-18T20:52:51.221Z,11.10
2018-10-18T20:55:20.542Z,10.13
2018-10-18T20:57:49.872Z,8.80
2018-10-18T21:00:19.233Z,8.40
2018-10-18T21:02:48.671Z,12.27
2018-10-18T21:05:18.014Z,11.10
2018-10-18T21:07:47.332Z,12.07
2018-10-18T21:10:16.714Z,10.77
2018-10-18T21:12:46.055Z,11.03
2018-10-18T21:15:15.590Z,10.17
2018-10-18T21:17:44.783Z,11.13
2018-10-18T21:20:14.133Z,7.37
2018-10-18T21:22:43.513Z,8.20
2018-10-18T21:25:12.872Z,7.37
2018-10-18T21:27:42.541Z,9.73
2018-10-18T21:30:11.849Z,9.80
2018-10-18T21:32:41.321Z,10.00
2018-10-18T21:35:10.779Z,14.47
2018-10-18T21:37:40.067Z,12.30
2018-10-18T21:40:09.440Z,8.83
2018-10-18T21:42:38.783Z,8.97
2018-10-18T21:45:08.240Z,9.57
2018-10-18T21:47:37.670Z,11.97
2018-10-18T21:50:07.438Z,9.47
2018-10-18T21:52:36.785Z,8.60
2018-10-18T21:55:07.894Z,9.30
2018-10-18T21:57:37.244Z,8.23
2018-10-18T22:00:13.126Z,9.30
2018-10-18T22:02:43.540Z,17.27
2018-10-18T22:05:13.752Z,12.03
2018-10-18T22:07:43.440Z,8.30
2018-10-18T22:10:13.565Z,8.17
2018-10-18T22:12:42.955Z,6.53
2018-10-18T22:15:12.371Z,12.63
2018-10-18T22:17:41.742Z,7.20
2018-10-18T22:20:11.380Z,12.80
2018-10-18T22:22:40.731Z,9.47
2018-10-18T22:25:10.206Z,8.50
2018-10-18T22:27:39.849Z,14.43
2018-10-18T22:30:09.460Z,9.00
2018-10-18T22:32:38.849Z,7.47
2018-10-18T22:35:08.270Z,7.07
2018-10-18T22:37:37.587Z,10.20
2018-10-18T22:40:08.003Z,13.80
2018-10-18T22:42:37.405Z,11.10
2018-10-18T22:45:08.299Z,10.67
2018-10-18T22:47:37.734Z,8.47
2018-10-18T22:50:07.139Z,6.10
2018-10-18T22:52:36.441Z,8.33
2018-10-18T22:55:06.386Z,13.30
2018-10-18T22:57:35.752Z,6.97
2018-10-18T23:00:06.398Z,8.93
2018-10-18T23:02:35.995Z,12.17
2018-10-18T23:05:05.758Z,6.77
2018-10-18T23:07:37.189Z,7.97
2018-10-18T23:10:07.162Z,12.90
2018-10-18T23:12:36.485Z,13.53
2018-10-18T23:15:08.343Z,7.87
2018-10-18T23:17:38.206Z,9.67
2018-10-18T23:20:08.775Z,12.33
2018-10-18T23:22:38.227Z,10.27
2018-10-18T23:25:07.658Z,7.30
2018-10-18T23:27:36.988Z,17.87
2018-10-18T23:30:08.018Z,7.67
2018-10-18T23:32:37.373Z,8.97
2018-10-18T23:35:07.130Z,8.27
2018-10-18T23:37:36.574Z,8.17
2018-10-18T23:40:06.255Z,10.07
2018-10-18T23:42:35.665Z,12.20
2018-10-18T23:45:05.712Z,8.10
2018-10-18T23:47:35.146Z,7.13
2018-10-18T23:50:04.726Z,12.80
2018-10-18T23:52:34.209Z,9.07
2018-10-18T23:55:03.695Z,7.27
2018-10-18T23:57:33.085Z,7.60
